Ennis, MT

7:46 PM MDT on August 29, 2014 (GMT -0600)
McAllister Station | Change Station
CLOSE
Current Station
Personal Weather Station
Location: McAllister, MT
Elevation: 4915 ft
Nearby Weather Stations

Elev 4915 ft 45.42 °N, 111.73 °W | Updated 6 seconds ago

Partly Cloudy
Partly Cloudy
72.5 °F
Feels Like 77 °F
N
4.0
Wind Variable Wind from South
Gusts 6.0 mph

Today
High -- | Low -- °F
--% Chance of Precip.
Yesterday
High -- | Low -- °F
Precip. -- in
6:44 AM 8:09 PM
Waxing Crescent, 18% visible
Pressure 29.75 in
Visibility 9.0 miles
Clouds Few 5000 ft
Mostly Cloudy 11000 ft
Heat Index 77 °F
Dew Point 48 °F
Humidity 41%
Rainfall 0.00 in
Snow Depth 0 in
UV 0 out of 12
Pollen 7.30 out of 12
Air Quality Not available.
Flu Activity Not available.
METAR KDLN 300053Z AUTO 06003KT 9SM FEW050 BKN110 28/02 A2991 RMK AO2 LTG DSNT S SLP074 T02830022 $

More Conditions Fewer Conditions

Pressure 29.75 in
Visibility 9.0 miles
Clouds Few 5000 ft
Mostly Cloudy 11000 ft
Heat Index 77 °F
Dew Point 48 °F
Humidity 41%
Rainfall 0.00 in
Snow Depth 0 in
UV 0 out of 12
Pollen 7.30 out of 12
Air Quality Not available.
Flu Activity Not available.
METAR KDLN 300053Z AUTO 06003KT 9SM FEW050 BKN110 28/02 A2991 RMK AO2 LTG DSNT S SLP074 T02830022 $

More Conditions Fewer Conditions

10-Day Weather Forecast

Almanac

Astronomy

Aug. 29, 2014 Rise Set
Actual Time 6:44 AM MDT 8:09 PM MDT
Civil Twilight 6:14 AM MDT 8:40 PM MDT
Nautical Twilight 5:36 AM MDT 9:17 PM MDT
Astronomical Twilight 4:57 AM MDT 9:56 PM MDT
Moon 10:51 AM MDT (8/29) 9:55 PM MDT (8/29)
Length of Visible Light 14h 26m
Length of Day
13h 24m
Tomorrow will be 3m 2s shorter.
Waxing Crescent, 18% of the Moon is Illuminated
Today
Waxing Crescent
Sep 2
First Quarter
Sep 8
Full
Sep 15
Last Quarter
Sep 24
New

Today's Extremes

State Highs State Lows

Community

WunderPhotos

Upload Photos

1,748,403 photos uploaded!

Nearby

Snow Depth

Station Depth Elevation
Lone Mountain 0 in 8880 ft
Short Creek 0 in 7000 ft
Shower Falls 0 in 8100 ft
Brackett Creek 0 in 7320 ft
Lakeview Ridge 0 in 7400 ft

Earthquake Activity

City Distance Mag. Time & Date
No recent earthquake activity has been reported nearby.
Minimum magnitude displayed is 2.5.

Coastal Water Temperatures

Place Temperature
No Stations Reporting

Nearby Weather Stations